sensor_id;sensor_type;location;lat;lon;timestamp;P1;durP1;ratioP1;P2;durP2;ratioP2
3700;SDS011;1866;48.374;10.766;2022-07-18T00:02:02;99.77;;;5.40;;
3700;SDS011;1866;48.374;10.766;2022-07-18T00:04:29;99.20;;;5.80;;
3700;SDS011;1866;48.374;10.766;2022-07-18T00:06:56;100.87;;;5.80;;
3700;SDS011;1866;48.374;10.766;2022-07-18T00:09:23;100.37;;;6.07;;
3700;SDS011;1866;48.374;10.766;2022-07-18T00:11:52;99.90;;;5.50;;
3700;SDS011;1866;48.374;10.766;2022-07-18T00:14:19;100.67;;;6.30;;
3700;SDS011;1866;48.374;10.766;2022-07-18T00:16:47;99.60;;;5.60;;
3700;SDS011;1866;48.374;10.766;2022-07-18T00:19:16;102.17;;;5.83;;
3700;SDS011;1866;48.374;10.766;2022-07-18T00:21:43;101.67;;;6.37;;
3700;SDS011;1866;48.374;10.766;2022-07-18T00:24:10;100.60;;;5.87;;
3700;SDS011;1866;48.374;10.766;2022-07-18T00:26:37;99.13;;;5.30;;
3700;SDS011;1866;48.374;10.766;2022-07-18T00:29:05;99.87;;;5.57;;
3700;SDS011;1866;48.374;10.766;2022-07-18T00:31:32;99.30;;;5.40;;
3700;SDS011;1866;48.374;10.766;2022-07-18T00:34:01;101.53;;;5.53;;
3700;SDS011;1866;48.374;10.766;2022-07-18T00:36:30;99.90;;;5.47;;
3700;SDS011;1866;48.374;10.766;2022-07-18T00:38:58;99.90;;;5.70;;
3700;SDS011;1866;48.374;10.766;2022-07-18T00:41:25;101.03;;;6.17;;
3700;SDS011;1866;48.374;10.766;2022-07-18T00:43:52;102.67;;;6.30;;
3700;SDS011;1866;48.374;10.766;2022-07-18T00:46:22;100.00;;;5.60;;
3700;SDS011;1866;48.374;10.766;2022-07-18T00:48:50;101.57;;;5.60;;
3700;SDS011;1866;48.374;10.766;2022-07-18T00:51:18;99.77;;;5.63;;
3700;SDS011;1866;48.374;10.766;2022-07-18T00:53:47;100.97;;;5.93;;
3700;SDS011;1866;48.374;10.766;2022-07-18T00:56:16;99.37;;;5.67;;
3700;SDS011;1866;48.374;10.766;2022-07-18T00:58:44;99.97;;;5.70;;
3700;SDS011;1866;48.374;10.766;2022-07-18T01:01:11;101.17;;;6.60;;
3700;SDS011;1866;48.374;10.766;2022-07-18T01:03:55;100.27;;;5.90;;
3700;SDS011;1866;48.374;10.766;2022-07-18T01:06:22;100.47;;;6.10;;
3700;SDS011;1866;48.374;10.766;2022-07-18T01:08:51;101.47;;;6.33;;
3700;SDS011;1866;48.374;10.766;2022-07-18T01:11:18;99.87;;;5.83;;
3700;SDS011;1866;48.374;10.766;2022-07-18T01:13:46;100.10;;;5.90;;
3700;SDS011;1866;48.374;10.766;2022-07-18T01:16:14;101.37;;;6.37;;
3700;SDS011;1866;48.374;10.766;2022-07-18T01:18:43;100.60;;;5.87;;
3700;SDS011;1866;48.374;10.766;2022-07-18T01:21:12;101.10;;;6.00;;
3700;SDS011;1866;48.374;10.766;2022-07-18T01:23:40;100.60;;;5.80;;
3700;SDS011;1866;48.374;10.766;2022-07-18T01:26:07;99.57;;;5.70;;
3700;SDS011;1866;48.374;10.766;2022-07-18T01:28:34;101.37;;;6.30;;
3700;SDS011;1866;48.374;10.766;2022-07-18T01:31:02;100.10;;;6.03;;
3700;SDS011;1866;48.374;10.766;2022-07-18T01:33:30;100.30;;;6.10;;
3700;SDS011;1866;48.374;10.766;2022-07-18T01:35:58;99.80;;;5.70;;
3700;SDS011;1866;48.374;10.766;2022-07-18T01:38:26;109.40;;;7.00;;
3700;SDS011;1866;48.374;10.766;2022-07-18T01:40:53;99.50;;;5.50;;
3700;SDS011;1866;48.374;10.766;2022-07-18T01:43:21;100.23;;;6.03;;
3700;SDS011;1866;48.374;10.766;2022-07-18T01:45:49;101.43;;;6.00;;
3700;SDS011;1866;48.374;10.766;2022-07-18T01:48:17;99.80;;;5.47;;
3700;SDS011;1866;48.374;10.766;2022-07-18T01:50:45;101.83;;;6.60;;
3700;SDS011;1866;48.374;10.766;2022-07-18T01:53:14;100.40;;;6.07;;
3700;SDS011;1866;48.374;10.766;2022-07-18T01:55:42;102.20;;;6.30;;
3700;SDS011;1866;48.374;10.766;2022-07-18T01:58:09;100.40;;;5.90;;
3700;SDS011;1866;48.374;10.766;2022-07-18T02:00:36;100.17;;;6.00;;
3700;SDS011;1866;48.374;10.766;2022-07-18T02:03:03;100.60;;;6.13;;
3700;SDS011;1866;48.374;10.766;2022-07-18T02:05:30;100.07;;;5.83;;
3700;SDS011;1866;48.374;10.766;2022-07-18T02:07:57;104.63;;;6.70;;
3700;SDS011;1866;48.374;10.766;2022-07-18T02:10:25;102.20;;;6.57;;
3700;SDS011;1866;48.374;10.766;2022-07-18T02:12:53;101.47;;;6.33;;
3700;SDS011;1866;48.374;10.766;2022-07-18T02:15:20;103.00;;;6.40;;
3700;SDS011;1866;48.374;10.766;2022-07-18T02:17:47;99.50;;;5.60;;
3700;SDS011;1866;48.374;10.766;2022-07-18T02:20:14;100.90;;;6.47;;
3700;SDS011;1866;48.374;10.766;2022-07-18T02:22:41;100.17;;;6.00;;
3700;SDS011;1866;48.374;10.766;2022-07-18T02:25:09;101.50;;;6.17;;
3700;SDS011;1866;48.374;10.766;2022-07-18T02:27:37;100.87;;;5.80;;
3700;SDS011;1866;48.374;10.766;2022-07-18T02:30:06;100.57;;;6.50;;
3700;SDS011;1866;48.374;10.766;2022-07-18T02:32:35;101.50;;;6.97;;
3700;SDS011;1866;48.374;10.766;2022-07-18T02:35:03;99.80;;;6.10;;
3700;SDS011;1866;48.374;10.766;2022-07-18T02:37:30;101.87;;;6.60;;
3700;SDS011;1866;48.374;10.766;2022-07-18T02:39:57;100.40;;;6.00;;
3700;SDS011;1866;48.374;10.766;2022-07-18T02:42:24;100.37;;;6.20;;
3700;SDS011;1866;48.374;10.766;2022-07-18T02:44:52;101.27;;;5.97;;
3700;SDS011;1866;48.374;10.766;2022-07-18T02:47:21;100.70;;;6.10;;
3700;SDS011;1866;48.374;10.766;2022-07-18T02:49:47;103.70;;;6.40;;
3700;SDS011;1866;48.374;10.766;2022-07-18T02:52:14;101.77;;;6.10;;
3700;SDS011;1866;48.374;10.766;2022-07-18T02:54:41;102.77;;;6.40;;
3700;SDS011;1866;48.374;10.766;2022-07-18T02:57:09;102.20;;;6.20;;
3700;SDS011;1866;48.374;10.766;2022-07-18T02:59:36;100.73;;;5.70;;
3700;SDS011;1866;48.374;10.766;2022-07-18T03:02:03;100.30;;;5.97;;
3700;SDS011;1866;48.374;10.766;2022-07-18T03:04:32;100.37;;;6.30;;
3700;SDS011;1866;48.374;10.766;2022-07-18T03:06:59;101.83;;;6.27;;
3700;SDS011;1866;48.374;10.766;2022-07-18T03:09:26;108.40;;;6.70;;
3700;SDS011;1866;48.374;10.766;2022-07-18T03:11:54;100.90;;;6.13;;
3700;SDS011;1866;48.374;10.766;2022-07-18T03:14:23;105.27;;;6.80;;
3700;SDS011;1866;48.374;10.766;2022-07-18T03:16:50;101.23;;;6.17;;
3700;SDS011;1866;48.374;10.766;2022-07-18T03:19:18;101.17;;;6.33;;
3700;SDS011;1866;48.374;10.766;2022-07-18T03:21:47;101.27;;;6.33;;
3700;SDS011;1866;48.374;10.766;2022-07-18T03:24:14;102.53;;;6.27;;
3700;SDS011;1866;48.374;10.766;2022-07-18T03:26:41;102.87;;;6.77;;
3700;SDS011;1866;48.374;10.766;2022-07-18T03:29:08;100.47;;;6.37;;
3700;SDS011;1866;48.374;10.766;2022-07-18T03:31:35;103.10;;;6.77;;
3700;SDS011;1866;48.374;10.766;2022-07-18T03:34:03;105.27;;;7.30;;
3700;SDS011;1866;48.374;10.766;2022-07-18T03:36:30;100.80;;;6.10;;
3700;SDS011;1866;48.374;10.766;2022-07-18T03:38:59;103.67;;;7.07;;
3700;SDS011;1866;48.374;10.766;2022-07-18T03:41:26;101.00;;;6.67;;
3700;SDS011;1866;48.374;10.766;2022-07-18T03:43:53;104.43;;;7.73;;
3700;SDS011;1866;48.374;10.766;2022-07-18T03:46:20;101.60;;;7.40;;
3700;SDS011;1866;48.374;10.766;2022-07-18T03:48:48;102.00;;;6.20;;
3700;SDS011;1866;48.374;10.766;2022-07-18T03:51:15;100.87;;;6.50;;
3700;SDS011;1866;48.374;10.766;2022-07-18T03:53:42;104.70;;;7.30;;
3700;SDS011;1866;48.374;10.766;2022-07-18T03:56:10;100.97;;;7.23;;
3700;SDS011;1866;48.374;10.766;2022-07-18T03:58:37;107.00;;;7.00;;
3700;SDS011;1866;48.374;10.766;2022-07-18T04:01:04;100.87;;;6.50;;
3700;SDS011;1866;48.374;10.766;2022-07-18T04:03:32;100.77;;;6.77;;
3700;SDS011;1866;48.374;10.766;2022-07-18T04:05:59;101.40;;;6.40;;
3700;SDS011;1866;48.374;10.766;2022-07-18T04:08:26;101.20;;;6.57;;
3700;SDS011;1866;48.374;10.766;2022-07-18T04:10:54;101.37;;;6.57;;
3700;SDS011;1866;48.374;10.766;2022-07-18T04:13:22;101.30;;;6.63;;
3700;SDS011;1866;48.374;10.766;2022-07-18T04:15:49;100.70;;;6.33;;
3700;SDS011;1866;48.374;10.766;2022-07-18T04:18:17;102.90;;;6.47;;
3700;SDS011;1866;48.374;10.766;2022-07-18T04:20:46;103.40;;;5.87;;
3700;SDS011;1866;48.374;10.766;2022-07-18T04:23:13;101.50;;;6.20;;
3700;SDS011;1866;48.374;10.766;2022-07-18T04:25:41;102.37;;;5.80;;
3700;SDS011;1866;48.374;10.766;2022-07-18T04:28:09;100.17;;;5.40;;
3700;SDS011;1866;48.374;10.766;2022-07-18T04:30:39;100.43;;;5.50;;
3700;SDS011;1866;48.374;10.766;2022-07-18T04:33:10;104.30;;;5.70;;
3700;SDS011;1866;48.374;10.766;2022-07-18T04:35:37;98.90;;;5.10;;
3700;SDS011;1866;48.374;10.766;2022-07-18T04:38:08;102.67;;;5.50;;
3700;SDS011;1866;48.374;10.766;2022-07-18T04:40:36;98.10;;;5.07;;
3700;SDS011;1866;48.374;10.766;2022-07-18T04:43:04;98.70;;;4.67;;
3700;SDS011;1866;48.374;10.766;2022-07-18T04:45:47;101.40;;;5.60;;
3700;SDS011;1866;48.374;10.766;2022-07-18T04:48:16;95.93;;;5.10;;
3700;SDS011;1866;48.374;10.766;2022-07-18T04:50:44;94.87;;;4.40;;
3700;SDS011;1866;48.374;10.766;2022-07-18T04:53:15;93.97;;;4.10;;
3700;SDS011;1866;48.374;10.766;2022-07-18T04:55:43;94.00;;;4.00;;
3700;SDS011;1866;48.374;10.766;2022-07-18T04:58:10;111.93;;;4.40;;
3700;SDS011;1866;48.374;10.766;2022-07-18T05:00:37;96.00;;;5.13;;
3700;SDS011;1866;48.374;10.766;2022-07-18T05:03:05;97.70;;;5.00;;
3700;SDS011;1866;48.374;10.766;2022-07-18T05:05:33;97.47;;;5.40;;
3700;SDS011;1866;48.374;10.766;2022-07-18T05:08:00;97.40;;;5.40;;
3700;SDS011;1866;48.374;10.766;2022-07-18T05:10:28;97.97;;;5.60;;
3700;SDS011;1866;48.374;10.766;2022-07-18T05:12:55;97.97;;;5.67;;
3700;SDS011;1866;48.374;10.766;2022-07-18T05:15:23;98.23;;;5.83;;
3700;SDS011;1866;48.374;10.766;2022-07-18T05:17:51;97.37;;;5.40;;
3700;SDS011;1866;48.374;10.766;2022-07-18T05:20:21;99.50;;;5.40;;
3700;SDS011;1866;48.374;10.766;2022-07-18T05:22:53;98.87;;;5.80;;
3700;SDS011;1866;48.374;10.766;2022-07-18T05:25:28;100.10;;;6.13;;
3700;SDS011;1866;48.374;10.766;2022-07-18T05:28:41;99.97;;;6.10;;
3700;SDS011;1866;48.374;10.766;2022-07-18T05:31:37;99.37;;;5.57;;
3700;SDS011;1866;48.374;10.766;2022-07-18T05:34:07;100.90;;;5.80;;
3700;SDS011;1866;48.374;10.766;2022-07-18T05:36:42;98.17;;;5.43;;
3700;SDS011;1866;48.374;10.766;2022-07-18T05:39:09;102.43;;;5.93;;
3700;SDS011;1866;48.374;10.766;2022-07-18T05:43:54;99.37;;;6.13;;
3700;SDS011;1866;48.374;10.766;2022-07-18T05:48:25;97.37;;;5.40;;
3700;SDS011;1866;48.374;10.766;2022-07-18T05:51:04;97.17;;;5.43;;
3700;SDS011;1866;48.374;10.766;2022-07-18T05:53:57;101.13;;;6.53;;
3700;SDS011;1866;48.374;10.766;2022-07-18T05:56:57;100.13;;;6.40;;
3700;SDS011;1866;48.374;10.766;2022-07-18T05:59:30;104.60;;;6.00;;
3700;SDS011;1866;48.374;10.766;2022-07-18T06:02:01;106.30;;;6.77;;
3700;SDS011;1866;48.374;10.766;2022-07-18T06:04:36;100.60;;;7.20;;
3700;SDS011;1866;48.374;10.766;2022-07-18T06:07:16;97.90;;;5.80;;
3700;SDS011;1866;48.374;10.766;2022-07-18T06:09:46;100.30;;;6.10;;
3700;SDS011;1866;48.374;10.766;2022-07-18T06:12:15;100.40;;;6.20;;
3700;SDS011;1866;48.374;10.766;2022-07-18T06:14:45;97.63;;;5.60;;
3700;SDS011;1866;48.374;10.766;2022-07-18T06:17:12;101.47;;;7.07;;
3700;SDS011;1866;48.374;10.766;2022-07-18T06:19:44;98.07;;;5.90;;
3700;SDS011;1866;48.374;10.766;2022-07-18T06:22:14;99.10;;;5.70;;
3700;SDS011;1866;48.374;10.766;2022-07-18T06:24:47;97.47;;;5.50;;
3700;SDS011;1866;48.374;10.766;2022-07-18T06:27:15;98.17;;;5.83;;
3700;SDS011;1866;48.374;10.766;2022-07-18T06:29:48;97.43;;;5.80;;
3700;SDS011;1866;48.374;10.766;2022-07-18T06:32:15;97.67;;;5.10;;
3700;SDS011;1866;48.374;10.766;2022-07-18T06:34:43;98.20;;;5.43;;
3700;SDS011;1866;48.374;10.766;2022-07-18T06:37:16;102.77;;;5.90;;
3700;SDS011;1866;48.374;10.766;2022-07-18T06:39:44;97.77;;;5.83;;
3700;SDS011;1866;48.374;10.766;2022-07-18T06:42:20;118.33;;;7.00;;
3700;SDS011;1866;48.374;10.766;2022-07-18T06:47:17;97.27;;;5.00;;
3700;SDS011;1866;48.374;10.766;2022-07-18T06:49:49;98.10;;;6.00;;
3700;SDS011;1866;48.374;10.766;2022-07-18T06:52:16;97.27;;;5.60;;
3700;SDS011;1866;48.374;10.766;2022-07-18T06:54:43;97.27;;;5.83;;
3700;SDS011;1866;48.374;10.766;2022-07-18T06:57:14;99.87;;;5.17;;
3700;SDS011;1866;48.374;10.766;2022-07-18T06:59:45;102.03;;;5.80;;
3700;SDS011;1866;48.374;10.766;2022-07-18T07:02:20;95.63;;;5.10;;
3700;SDS011;1866;48.374;10.766;2022-07-18T07:04:54;101.03;;;4.97;;
3700;SDS011;1866;48.374;10.766;2022-07-18T07:07:21;95.27;;;4.80;;
3700;SDS011;1866;48.374;10.766;2022-07-18T07:09:48;96.67;;;5.30;;
3700;SDS011;1866;48.374;10.766;2022-07-18T07:12:17;98.10;;;5.37;;
3700;SDS011;1866;48.374;10.766;2022-07-18T07:14:49;95.27;;;4.80;;
3700;SDS011;1866;48.374;10.766;2022-07-18T07:20:19;93.70;;;4.33;;
3700;SDS011;1866;48.374;10.766;2022-07-18T07:22:47;94.57;;;4.90;;
3700;SDS011;1866;48.374;10.766;2022-07-18T07:25:18;95.30;;;4.60;;
3700;SDS011;1866;48.374;10.766;2022-07-18T07:27:48;94.70;;;4.70;;
3700;SDS011;1866;48.374;10.766;2022-07-18T07:30:15;94.30;;;4.10;;
3700;SDS011;1866;48.374;10.766;2022-07-18T07:32:43;95.83;;;4.47;;
3700;SDS011;1866;48.374;10.766;2022-07-18T07:35:23;93.80;;;4.63;;
3700;SDS011;1866;48.374;10.766;2022-07-18T07:37:52;96.53;;;5.07;;
3700;SDS011;1866;48.374;10.766;2022-07-18T07:40:23;94.77;;;4.17;;
3700;SDS011;1866;48.374;10.766;2022-07-18T07:42:57;93.33;;;4.10;;
3700;SDS011;1866;48.374;10.766;2022-07-18T07:45:31;92.77;;;3.80;;
3700;SDS011;1866;48.374;10.766;2022-07-18T07:47:58;94.90;;;4.30;;
3700;SDS011;1866;48.374;10.766;2022-07-18T07:50:25;93.50;;;4.17;;
3700;SDS011;1866;48.374;10.766;2022-07-18T07:52:52;93.37;;;4.23;;
3700;SDS011;1866;48.374;10.766;2022-07-18T07:55:19;95.40;;;4.10;;
3700;SDS011;1866;48.374;10.766;2022-07-18T07:57:46;94.67;;;3.83;;
3700;SDS011;1866;48.374;10.766;2022-07-18T08:00:15;92.17;;;3.60;;
3700;SDS011;1866;48.374;10.766;2022-07-18T08:02:52;95.70;;;4.43;;
3700;SDS011;1866;48.374;10.766;2022-07-18T08:05:20;91.97;;;3.63;;
3700;SDS011;1866;48.374;10.766;2022-07-18T08:07:47;92.20;;;3.60;;
3700;SDS011;1866;48.374;10.766;2022-07-18T08:10:14;91.27;;;3.63;;
3700;SDS011;1866;48.374;10.766;2022-07-18T08:12:42;91.80;;;3.70;;
3700;SDS011;1866;48.374;10.766;2022-07-18T08:15:10;91.27;;;3.60;;
3700;SDS011;1866;48.374;10.766;2022-07-18T08:17:38;94.97;;;4.30;;
3700;SDS011;1866;48.374;10.766;2022-07-18T08:20:07;93.37;;;4.30;;
3700;SDS011;1866;48.374;10.766;2022-07-18T08:22:36;93.00;;;4.53;;
3700;SDS011;1866;48.374;10.766;2022-07-18T08:25:06;93.07;;;4.40;;
3700;SDS011;1866;48.374;10.766;2022-07-18T08:27:33;91.87;;;3.60;;
3700;SDS011;1866;48.374;10.766;2022-07-18T08:30:00;91.27;;;3.50;;
3700;SDS011;1866;48.374;10.766;2022-07-18T08:32:27;91.60;;;3.57;;
3700;SDS011;1866;48.374;10.766;2022-07-18T08:34:55;90.93;;;3.50;;
3700;SDS011;1866;48.374;10.766;2022-07-18T08:37:22;95.80;;;4.00;;
3700;SDS011;1866;48.374;10.766;2022-07-18T08:39:49;91.07;;;3.40;;
3700;SDS011;1866;48.374;10.766;2022-07-18T08:42:17;90.60;;;3.40;;
3700;SDS011;1866;48.374;10.766;2022-07-18T08:44:47;91.10;;;3.80;;
3700;SDS011;1866;48.374;10.766;2022-07-18T08:47:15;91.60;;;3.90;;
3700;SDS011;1866;48.374;10.766;2022-07-18T08:49:43;96.33;;;3.30;;
3700;SDS011;1866;48.374;10.766;2022-07-18T08:52:12;89.90;;;3.57;;
3700;SDS011;1866;48.374;10.766;2022-07-18T08:54:41;91.27;;;3.73;;
3700;SDS011;1866;48.374;10.766;2022-07-18T08:57:08;90.97;;;3.30;;
3700;SDS011;1866;48.374;10.766;2022-07-18T08:59:36;90.20;;;3.37;;
3700;SDS011;1866;48.374;10.766;2022-07-18T09:02:05;91.47;;;3.23;;
3700;SDS011;1866;48.374;10.766;2022-07-18T09:04:34;89.70;;;3.27;;
3700;SDS011;1866;48.374;10.766;2022-07-18T09:07:04;89.87;;;3.30;;
3700;SDS011;1866;48.374;10.766;2022-07-18T09:09:36;93.63;;;3.63;;
3700;SDS011;1866;48.374;10.766;2022-07-18T09:12:11;89.93;;;3.50;;
3700;SDS011;1866;48.374;10.766;2022-07-18T09:14:39;90.00;;;3.63;;
3700;SDS011;1866;48.374;10.766;2022-07-18T09:17:09;91.00;;;3.40;;
3700;SDS011;1866;48.374;10.766;2022-07-18T09:19:39;90.43;;;3.23;;
3700;SDS011;1866;48.374;10.766;2022-07-18T09:22:11;90.50;;;3.83;;
3700;SDS011;1866;48.374;10.766;2022-07-18T09:24:51;89.67;;;3.10;;
3700;SDS011;1866;48.374;10.766;2022-07-18T09:27:24;90.07;;;3.13;;
3700;SDS011;1866;48.374;10.766;2022-07-18T09:32:54;92.03;;;3.63;;
3700;SDS011;1866;48.374;10.766;2022-07-18T09:35:31;92.27;;;3.97;;
3700;SDS011;1866;48.374;10.766;2022-07-18T09:38:08;90.60;;;3.37;;
3700;SDS011;1866;48.374;10.766;2022-07-18T09:40:39;90.10;;;3.67;;
3700;SDS011;1866;48.374;10.766;2022-07-18T09:43:08;89.57;;;3.20;;
3700;SDS011;1866;48.374;10.766;2022-07-18T09:45:37;89.77;;;3.60;;
3700;SDS011;1866;48.374;10.766;2022-07-18T09:48:07;90.60;;;3.60;;
3700;SDS011;1866;48.374;10.766;2022-07-18T09:50:36;90.00;;;3.60;;
3700;SDS011;1866;48.374;10.766;2022-07-18T09:53:08;93.57;;;4.33;;
3700;SDS011;1866;48.374;10.766;2022-07-18T09:55:41;91.03;;;4.07;;
3700;SDS011;1866;48.374;10.766;2022-07-18T09:58:14;90.30;;;3.50;;
3700;SDS011;1866;48.374;10.766;2022-07-18T10:00:42;91.60;;;3.57;;
3700;SDS011;1866;48.374;10.766;2022-07-18T10:03:09;93.13;;;3.70;;
3700;SDS011;1866;48.374;10.766;2022-07-18T10:05:38;90.40;;;3.40;;
3700;SDS011;1866;48.374;10.766;2022-07-18T10:08:07;90.23;;;3.83;;
3700;SDS011;1866;48.374;10.766;2022-07-18T10:10:38;90.40;;;3.83;;
3700;SDS011;1866;48.374;10.766;2022-07-18T10:13:07;90.57;;;3.73;;
3700;SDS011;1866;48.374;10.766;2022-07-18T10:15:37;92.97;;;4.23;;
3700;SDS011;1866;48.374;10.766;2022-07-18T10:18:05;89.77;;;3.50;;
3700;SDS011;1866;48.374;10.766;2022-07-18T10:20:35;91.10;;;3.90;;
3700;SDS011;1866;48.374;10.766;2022-07-18T10:23:13;90.17;;;3.40;;
3700;SDS011;1866;48.374;10.766;2022-07-18T10:25:44;90.50;;;3.70;;
3700;SDS011;1866;48.374;10.766;2022-07-18T10:28:32;90.07;;;3.63;;
3700;SDS011;1866;48.374;10.766;2022-07-18T10:31:11;89.40;;;3.40;;
3700;SDS011;1866;48.374;10.766;2022-07-18T10:33:42;89.80;;;3.40;;
3700;SDS011;1866;48.374;10.766;2022-07-18T10:36:12;90.10;;;3.97;;
3700;SDS011;1866;48.374;10.766;2022-07-18T10:41:34;89.90;;;3.43;;
3700;SDS011;1866;48.374;10.766;2022-07-18T10:44:40;92.57;;;3.77;;
3700;SDS011;1866;48.374;10.766;2022-07-18T10:47:08;88.93;;;3.30;;
3700;SDS011;1866;48.374;10.766;2022-07-18T10:55:31;91.23;;;3.70;;
3700;SDS011;1866;48.374;10.766;2022-07-18T10:58:18;88.97;;;3.40;;
3700;SDS011;1866;48.374;10.766;2022-07-18T11:00:48;89.67;;;3.60;;
3700;SDS011;1866;48.374;10.766;2022-07-18T11:03:16;89.70;;;3.50;;
3700;SDS011;1866;48.374;10.766;2022-07-18T11:05:51;89.23;;;3.50;;
3700;SDS011;1866;48.374;10.766;2022-07-18T11:08:20;89.30;;;3.70;;
3700;SDS011;1866;48.374;10.766;2022-07-18T11:11:05;88.67;;;3.40;;
3700;SDS011;1866;48.374;10.766;2022-07-18T11:13:36;89.20;;;3.60;;
3700;SDS011;1866;48.374;10.766;2022-07-18T11:16:05;89.87;;;4.00;;
3700;SDS011;1866;48.374;10.766;2022-07-18T11:21:40;98.53;;;3.60;;
3700;SDS011;1866;48.374;10.766;2022-07-18T11:24:08;89.27;;;3.33;;
3700;SDS011;1866;48.374;10.766;2022-07-18T11:26:43;89.17;;;3.60;;
3700;SDS011;1866;48.374;10.766;2022-07-18T11:29:14;94.10;;;4.50;;
3700;SDS011;1866;48.374;10.766;2022-07-18T11:31:44;92.30;;;3.30;;
3700;SDS011;1866;48.374;10.766;2022-07-18T11:34:12;89.07;;;3.70;;
3700;SDS011;1866;48.374;10.766;2022-07-18T11:36:39;90.10;;;3.97;;
3700;SDS011;1866;48.374;10.766;2022-07-18T11:39:08;89.47;;;3.40;;
3700;SDS011;1866;48.374;10.766;2022-07-18T11:41:36;88.00;;;3.50;;
3700;SDS011;1866;48.374;10.766;2022-07-18T11:44:20;89.07;;;3.10;;
3700;SDS011;1866;48.374;10.766;2022-07-18T11:47:00;89.37;;;3.40;;
3700;SDS011;1866;48.374;10.766;2022-07-18T11:49:28;92.40;;;3.60;;
3700;SDS011;1866;48.374;10.766;2022-07-18T11:51:58;88.77;;;3.70;;
3700;SDS011;1866;48.374;10.766;2022-07-18T11:54:25;88.30;;;3.30;;
3700;SDS011;1866;48.374;10.766;2022-07-18T11:56:53;88.67;;;3.53;;
3700;SDS011;1866;48.374;10.766;2022-07-18T11:59:23;88.93;;;2.97;;
3700;SDS011;1866;48.374;10.766;2022-07-18T12:02:01;89.47;;;2.80;;
3700;SDS011;1866;48.374;10.766;2022-07-18T12:04:28;87.27;;;2.67;;
3700;SDS011;1866;48.374;10.766;2022-07-18T12:07:12;88.00;;;2.60;;
3700;SDS011;1866;48.374;10.766;2022-07-18T12:09:39;87.97;;;3.10;;
3700;SDS011;1866;48.374;10.766;2022-07-18T12:12:07;89.87;;;3.10;;
3700;SDS011;1866;48.374;10.766;2022-07-18T12:14:37;88.00;;;3.13;;
3700;SDS011;1866;48.374;10.766;2022-07-18T12:17:04;87.77;;;3.30;;
3700;SDS011;1866;48.374;10.766;2022-07-18T12:19:33;87.87;;;3.20;;
3700;SDS011;1866;48.374;10.766;2022-07-18T12:22:04;89.20;;;3.90;;
3700;SDS011;1866;48.374;10.766;2022-07-18T12:24:33;89.20;;;3.30;;
3700;SDS011;1866;48.374;10.766;2022-07-18T12:27:11;88.00;;;3.20;;
3700;SDS011;1866;48.374;10.766;2022-07-18T12:29:59;87.60;;;3.10;;
3700;SDS011;1866;48.374;10.766;2022-07-18T12:32:39;90.57;;;3.30;;
3700;SDS011;1866;48.374;10.766;2022-07-18T12:35:13;88.10;;;2.90;;
3700;SDS011;1866;48.374;10.766;2022-07-18T12:37:50;87.47;;;2.90;;
3700;SDS011;1866;48.374;10.766;2022-07-18T12:40:19;92.40;;;3.53;;
3700;SDS011;1866;48.374;10.766;2022-07-18T12:42:47;88.37;;;3.20;;
3700;SDS011;1866;48.374;10.766;2022-07-18T12:45:15;87.87;;;3.00;;
3700;SDS011;1866;48.374;10.766;2022-07-18T12:47:42;87.70;;;3.10;;
3700;SDS011;1866;48.374;10.766;2022-07-18T12:50:09;89.67;;;2.90;;
3700;SDS011;1866;48.374;10.766;2022-07-18T12:52:36;87.67;;;3.10;;
3700;SDS011;1866;48.374;10.766;2022-07-18T12:55:05;88.00;;;2.70;;
3700;SDS011;1866;48.374;10.766;2022-07-18T12:57:32;88.80;;;3.10;;
3700;SDS011;1866;48.374;10.766;2022-07-18T12:59:59;87.80;;;3.30;;
3700;SDS011;1866;48.374;10.766;2022-07-18T13:02:28;87.20;;;2.90;;
3700;SDS011;1866;48.374;10.766;2022-07-18T13:04:54;87.90;;;3.00;;
3700;SDS011;1866;48.374;10.766;2022-07-18T13:07:21;87.87;;;2.73;;
3700;SDS011;1866;48.374;10.766;2022-07-18T13:09:48;102.53;;;3.37;;
3700;SDS011;1866;48.374;10.766;2022-07-18T13:12:16;86.57;;;2.70;;
3700;SDS011;1866;48.374;10.766;2022-07-18T13:14:50;88.07;;;2.50;;
3700;SDS011;1866;48.374;10.766;2022-07-18T13:17:17;89.60;;;3.37;;
3700;SDS011;1866;48.374;10.766;2022-07-18T13:19:49;87.13;;;2.80;;
3700;SDS011;1866;48.374;10.766;2022-07-18T13:22:18;87.40;;;2.80;;
3700;SDS011;1866;48.374;10.766;2022-07-18T13:24:46;88.00;;;3.00;;
3700;SDS011;1866;48.374;10.766;2022-07-18T13:27:13;86.93;;;2.70;;
3700;SDS011;1866;48.374;10.766;2022-07-18T13:29:43;86.97;;;2.60;;
3700;SDS011;1866;48.374;10.766;2022-07-18T13:32:10;87.87;;;2.63;;
3700;SDS011;1866;48.374;10.766;2022-07-18T13:34:37;87.07;;;2.57;;
3700;SDS011;1866;48.374;10.766;2022-07-18T13:37:05;87.87;;;2.70;;
3700;SDS011;1866;48.374;10.766;2022-07-18T13:39:32;87.50;;;2.73;;
3700;SDS011;1866;48.374;10.766;2022-07-18T13:41:59;86.40;;;2.70;;
3700;SDS011;1866;48.374;10.766;2022-07-18T13:44:27;88.00;;;2.90;;
3700;SDS011;1866;48.374;10.766;2022-07-18T13:46:54;89.23;;;2.80;;
3700;SDS011;1866;48.374;10.766;2022-07-18T13:49:21;87.10;;;2.80;;
3700;SDS011;1866;48.374;10.766;2022-07-18T13:51:48;86.37;;;2.80;;
3700;SDS011;1866;48.374;10.766;2022-07-18T13:54:16;86.47;;;2.90;;
3700;SDS011;1866;48.374;10.766;2022-07-18T13:56:43;86.80;;;2.90;;
3700;SDS011;1866;48.374;10.766;2022-07-18T13:59:12;87.00;;;2.97;;
3700;SDS011;1866;48.374;10.766;2022-07-18T14:01:40;87.73;;;2.93;;
3700;SDS011;1866;48.374;10.766;2022-07-18T14:04:07;89.00;;;2.80;;
3700;SDS011;1866;48.374;10.766;2022-07-18T14:06:34;94.73;;;2.93;;
3700;SDS011;1866;48.374;10.766;2022-07-18T14:11:34;88.13;;;3.30;;
3700;SDS011;1866;48.374;10.766;2022-07-18T14:14:01;86.33;;;2.60;;
3700;SDS011;1866;48.374;10.766;2022-07-18T14:16:29;87.60;;;2.70;;
3700;SDS011;1866;48.374;10.766;2022-07-18T14:19:00;87.10;;;2.70;;
3700;SDS011;1866;48.374;10.766;2022-07-18T14:21:29;88.00;;;2.50;;
3700;SDS011;1866;48.374;10.766;2022-07-18T14:23:56;88.43;;;3.10;;
3700;SDS011;1866;48.374;10.766;2022-07-18T14:26:23;86.30;;;2.90;;
3700;SDS011;1866;48.374;10.766;2022-07-18T14:28:52;87.17;;;3.00;;
3700;SDS011;1866;48.374;10.766;2022-07-18T14:31:19;86.47;;;2.50;;
3700;SDS011;1866;48.374;10.766;2022-07-18T14:33:46;89.20;;;2.80;;
3700;SDS011;1866;48.374;10.766;2022-07-18T14:36:14;88.90;;;3.03;;
3700;SDS011;1866;48.374;10.766;2022-07-18T14:38:41;86.37;;;2.70;;
3700;SDS011;1866;48.374;10.766;2022-07-18T14:41:08;88.57;;;2.90;;
3700;SDS011;1866;48.374;10.766;2022-07-18T14:43:35;86.87;;;2.87;;
3700;SDS011;1866;48.374;10.766;2022-07-18T14:46:03;86.80;;;2.60;;
3700;SDS011;1866;48.374;10.766;2022-07-18T14:48:30;86.73;;;2.70;;
3700;SDS011;1866;48.374;10.766;2022-07-18T14:50:57;88.80;;;2.87;;
3700;SDS011;1866;48.374;10.766;2022-07-18T14:53:25;86.87;;;2.70;;
3700;SDS011;1866;48.374;10.766;2022-07-18T14:55:53;86.27;;;2.63;;
3700;SDS011;1866;48.374;10.766;2022-07-18T14:58:20;87.00;;;2.73;;
3700;SDS011;1866;48.374;10.766;2022-07-18T15:00:47;87.20;;;3.00;;
3700;SDS011;1866;48.374;10.766;2022-07-18T15:03:16;88.70;;;2.73;;
3700;SDS011;1866;48.374;10.766;2022-07-18T15:05:43;89.33;;;3.17;;
3700;SDS011;1866;48.374;10.766;2022-07-18T15:08:10;87.57;;;3.10;;
3700;SDS011;1866;48.374;10.766;2022-07-18T15:10:37;87.23;;;2.73;;
3700;SDS011;1866;48.374;10.766;2022-07-18T15:13:06;87.17;;;2.70;;
3700;SDS011;1866;48.374;10.766;2022-07-18T15:15:33;88.10;;;2.70;;
3700;SDS011;1866;48.374;10.766;2022-07-18T15:18:01;86.57;;;2.90;;
3700;SDS011;1866;48.374;10.766;2022-07-18T15:20:30;87.47;;;3.10;;
3700;SDS011;1866;48.374;10.766;2022-07-18T15:22:59;86.17;;;2.77;;
3700;SDS011;1866;48.374;10.766;2022-07-18T15:25:26;90.40;;;3.00;;